createdAt,value
2017-01-29T00:00:21.094Z,1011.61
2017-01-29T00:01:01.745Z,1011.61
2017-01-29T00:01:42.348Z,1011.61
2017-01-29T00:02:23.140Z,1011.59
2017-01-29T00:03:03.799Z,1011.59
2017-01-29T00:03:44.422Z,1011.63
2017-01-29T00:04:25.183Z,1011.59
2017-01-29T00:05:05.810Z,1011.57
2017-01-29T00:05:46.465Z,1011.58
2017-01-29T00:06:27.118Z,1011.55
2017-01-29T00:07:07.772Z,1011.58
2017-01-29T00:07:48.424Z,1011.58
2017-01-29T00:08:29.178Z,1011.59
2017-01-29T00:09:09.830Z,1011.55
2017-01-29T00:09:50.485Z,1011.58
2017-01-29T00:10:31.049Z,1011.6
2017-01-29T00:11:11.692Z,1011.61
2017-01-29T00:11:52.267Z,1011.59
2017-01-29T00:12:32.893Z,1011.62
2017-01-29T00:13:13.543Z,1011.63
2017-01-29T00:13:54.117Z,1011.66
2017-01-29T00:14:34.748Z,1011.62
2017-01-29T00:15:15.585Z,1011.63
2017-01-29T00:15:56.462Z,1011.65
2017-01-29T00:16:37.069Z,1011.68
2017-01-29T00:17:17.693Z,1011.66
2017-01-29T00:17:58.427Z,1011.64
2017-01-29T00:18:39.023Z,1011.65
2017-01-29T00:19:19.727Z,1011.64
2017-01-29T00:20:00.588Z,1011.68
2017-01-29T00:20:41.242Z,1011.68
2017-01-29T00:21:21.890Z,1011.67
2017-01-29T00:22:02.544Z,1011.65
2017-01-29T00:22:43.199Z,1011.64
2017-01-29T00:23:24.049Z,1011.69
2017-01-29T00:24:04.820Z,1011.67
2017-01-29T00:24:45.454Z,1011.7
2017-01-29T00:25:26.078Z,1011.64
2017-01-29T00:26:06.717Z,1011.68
2017-01-29T00:26:47.495Z,1011.65
2017-01-29T00:27:28.280Z,1011.69
2017-01-29T00:28:09.036Z,1011.69
2017-01-29T00:28:49.610Z,1011.68
2017-01-29T00:29:30.191Z,1011.63
2017-01-29T00:30:10.844Z,1011.65
2017-01-29T00:30:51.615Z,1011.68
2017-01-29T00:31:32.302Z,1011.68
2017-01-29T00:32:12.987Z,1011.65
2017-01-29T00:32:53.613Z,1011.67
2017-01-29T00:33:34.259Z,1011.72
2017-01-29T00:34:14.844Z,1011.71
2017-01-29T00:34:55.483Z,1011.71
2017-01-29T00:35:36.114Z,1011.74
2017-01-29T00:36:16.691Z,1011.71
2017-01-29T00:36:57.320Z,1011.73
2017-01-29T00:37:37.902Z,1011.74
2017-01-29T00:38:18.559Z,1011.72
2017-01-29T00:38:59.149Z,1011.72
2017-01-29T00:39:40.807Z,1011.7
2017-01-29T00:40:21.418Z,1011.71
2017-01-29T00:41:02.009Z,1011.69
2017-01-29T00:41:42.606Z,1011.65
2017-01-29T00:42:23.259Z,1011.69
2017-01-29T00:43:03.834Z,1011.74
2017-01-29T00:43:44.457Z,1011.74
2017-01-29T00:44:25.038Z,1011.7
2017-01-29T00:45:05.616Z,1011.74
2017-01-29T00:45:46.218Z,1011.74
2017-01-29T00:46:26.799Z,1011.76
2017-01-29T00:47:07.420Z,1011.68
2017-01-29T00:47:47.996Z,1011.73
2017-01-29T00:48:28.623Z,1011.75
2017-01-29T00:49:09.217Z,1011.77
2017-01-29T00:49:49.858Z,1011.75
2017-01-29T00:50:30.400Z,1011.73
2017-01-29T00:51:11.054Z,1011.72
2017-01-29T00:51:51.684Z,1011.74
2017-01-29T00:52:32.336Z,1011.77
2017-01-29T00:53:12.997Z,1011.78
2017-01-29T00:53:53.672Z,1011.76
2017-01-29T00:54:34.303Z,1011.74
2017-01-29T00:55:14.951Z,1011.79
2017-01-29T00:55:55.504Z,1011.78
2017-01-29T00:56:36.160Z,1011.75
2017-01-29T00:57:16.742Z,1011.76
2017-01-29T00:57:57.355Z,1011.71
2017-01-29T00:58:38.015Z,1011.72
2017-01-29T00:59:18.594Z,1011.69
2017-01-29T00:59:59.212Z,1011.7
2017-01-29T01:00:39.867Z,1011.75
2017-01-29T01:01:20.524Z,1011.76
2017-01-29T01:02:01.169Z,1011.75
2017-01-29T01:02:41.741Z,1011.69
2017-01-29T01:03:22.433Z,1011.77
2017-01-29T01:04:03.079Z,1011.77
2017-01-29T01:04:43.731Z,1011.76
2017-01-29T01:05:24.383Z,1011.8
2017-01-29T01:06:04.988Z,1011.78
2017-01-29T01:06:45.640Z,1011.75
2017-01-29T01:07:26.215Z,1011.77
2017-01-29T01:08:06.787Z,1011.75
2017-01-29T01:08:47.394Z,1011.78
2017-01-29T01:09:27.965Z,1011.77
2017-01-29T01:10:08.558Z,1011.77
2017-01-29T01:10:49.156Z,1011.76
2017-01-29T01:11:29.798Z,1011.75
2017-01-29T01:12:11.476Z,1011.76
2017-01-29T01:12:52.130Z,1011.73
2017-01-29T01:13:32.781Z,1011.78
2017-01-29T01:14:13.354Z,1011.71
2017-01-29T01:14:53.964Z,1011.69
2017-01-29T01:15:34.640Z,1011.68
2017-01-29T01:16:15.321Z,1011.67
2017-01-29T01:16:55.950Z,1011.63
2017-01-29T01:17:36.598Z,1011.63
2017-01-29T01:18:17.251Z,1011.68
2017-01-29T01:18:57.827Z,1011.69
2017-01-29T01:19:38.556Z,1011.72
2017-01-29T01:20:19.209Z,1011.75
2017-01-29T01:20:59.863Z,1011.76
2017-01-29T01:21:40.515Z,1011.8
2017-01-29T01:22:21.173Z,1011.78
2017-01-29T01:23:01.821Z,1011.78
2017-01-29T01:23:42.481Z,1011.78
2017-01-29T01:24:23.126Z,1011.77
2017-01-29T01:25:03.781Z,1011.79
2017-01-29T01:25:44.431Z,1011.79
2017-01-29T01:26:25.017Z,1011.78
2017-01-29T01:27:05.714Z,1011.77
2017-01-29T01:27:46.447Z,1011.83
2017-01-29T01:28:27.146Z,1011.77
2017-01-29T01:29:07.813Z,1011.8
2017-01-29T01:29:48.452Z,1011.84
2017-01-29T01:30:29.022Z,1011.87
2017-01-29T01:31:09.666Z,1011.85
2017-01-29T01:31:50.309Z,1011.89
2017-01-29T01:32:30.887Z,1011.92
2017-01-29T01:33:11.512Z,1011.96
2017-01-29T01:33:52.074Z,1011.97
2017-01-29T01:34:32.714Z,1011.97
2017-01-29T01:35:13.275Z,1011.94
2017-01-29T01:35:53.923Z,1011.97
2017-01-29T01:36:34.509Z,1011.87
2017-01-29T01:37:15.123Z,1011.85
2017-01-29T01:37:55.697Z,1011.8
2017-01-29T01:38:36.327Z,1011.81
2017-01-29T01:39:16.899Z,1011.83
2017-01-29T01:39:57.532Z,1011.79
2017-01-29T01:40:38.180Z,1011.76
2017-01-29T01:41:18.793Z,1011.77
2017-01-29T01:41:59.476Z,1011.75
2017-01-29T01:42:40.045Z,1011.75
2017-01-29T01:43:20.639Z,1011.74
2017-01-29T01:44:01.289Z,1011.7
2017-01-29T01:44:41.947Z,1011.66
2017-01-29T01:45:22.597Z,1011.66
2017-01-29T01:46:03.202Z,1011.65
2017-01-29T01:46:43.853Z,1011.6
2017-01-29T01:47:24.420Z,1011.56
2017-01-29T01:48:05.056Z,1011.56
2017-01-29T01:48:45.643Z,1011.55
2017-01-29T01:49:26.308Z,1011.56
2017-01-29T01:50:06.910Z,1011.61
2017-01-29T01:50:47.567Z,1011.56
2017-01-29T01:51:28.140Z,1011.57
2017-01-29T01:52:08.716Z,1011.55
2017-01-29T01:52:49.323Z,1011.55
2017-01-29T01:53:29.968Z,1011.57
2017-01-29T01:54:10.542Z,1011.57
2017-01-29T01:54:51.148Z,1011.58
2017-01-29T01:55:31.828Z,1011.58
2017-01-29T01:56:12.395Z,1011.58
2017-01-29T01:56:53.035Z,1011.65
2017-01-29T01:57:33.611Z,1011.71
2017-01-29T01:58:15.220Z,1011.72
2017-01-29T01:58:55.776Z,1011.74
2017-01-29T01:59:36.411Z,1011.79
2017-01-29T02:00:17.019Z,1011.82
2017-01-29T02:00:57.570Z,1011.83
2017-01-29T02:01:38.915Z,1011.83
2017-01-29T02:02:19.491Z,1011.87
2017-01-29T02:03:00.141Z,1011.86
2017-01-29T02:03:40.724Z,1011.88
2017-01-29T02:04:21.424Z,1011.97
2017-01-29T02:05:02.009Z,1011.91
2017-01-29T02:05:42.603Z,1011.98
2017-01-29T02:06:23.306Z,1012
2017-01-29T02:07:03.908Z,1011.99
2017-01-29T02:07:44.559Z,1011.96
2017-01-29T02:08:25.160Z,1011.94
2017-01-29T02:09:05.735Z,1011.93
2017-01-29T02:09:46.418Z,1011.92
2017-01-29T02:10:27.020Z,1011.98
2017-01-29T02:11:07.581Z,1011.93
2017-01-29T02:11:48.172Z,1011.96
2017-01-29T02:12:28.778Z,1011.91
2017-01-29T02:13:09.327Z,1011.92
2017-01-29T02:13:49.982Z,1011.99
2017-01-29T02:14:30.633Z,1011.96
2017-01-29T02:15:11.201Z,1012
2017-01-29T02:15:51.837Z,1012.02
2017-01-29T02:16:32.485Z,1012
2017-01-29T02:17:13.043Z,1012
2017-01-29T02:17:53.636Z,1011.99
2017-01-29T02:18:34.238Z,1011.95
2017-01-29T02:19:14.795Z,1011.94
2017-01-29T02:19:55.404Z,1011.88
2017-01-29T02:20:35.988Z,1011.84
2017-01-29T02:21:16.646Z,1011.84
2017-01-29T02:21:57.299Z,1011.81
2017-01-29T02:22:37.870Z,1011.81
2017-01-29T02:23:18.557Z,1011.78
2017-01-29T02:23:59.252Z,1011.77
2017-01-29T02:24:40.009Z,1011.77
2017-01-29T02:25:20.664Z,1011.75
2017-01-29T02:26:01.231Z,1011.79
2017-01-29T02:26:41.876Z,1011.78
2017-01-29T02:27:23.444Z,1011.78
2017-01-29T02:28:04.049Z,1011.77
2017-01-29T02:28:44.652Z,1011.8
2017-01-29T02:29:25.303Z,1011.78
2017-01-29T02:30:05.874Z,1011.8
2017-01-29T02:30:46.501Z,1011.83
2017-01-29T02:31:27.081Z,1011.81
2017-01-29T02:32:07.710Z,1011.85
2017-01-29T02:32:48.281Z,1011.83
2017-01-29T02:33:28.915Z,1011.82
2017-01-29T02:34:09.565Z,1011.81
2017-01-29T02:36:22.819Z,1011.73
2017-01-29T02:37:03.440Z,1011.71
2017-01-29T02:37:44.095Z,1011.74
2017-01-29T02:38:24.763Z,1011.78
2017-01-29T02:39:05.399Z,1011.8
2017-01-29T02:39:46.051Z,1011.75
2017-01-29T02:40:26.690Z,1011.81
2017-01-29T02:41:07.355Z,1011.81
2017-01-29T02:41:48.013Z,1011.79
2017-01-29T02:42:28.660Z,1011.8
2017-01-29T02:43:09.307Z,1011.77
2017-01-29T02:43:49.969Z,1011.8
2017-01-29T02:44:30.619Z,1011.83
2017-01-29T02:45:11.272Z,1011.85
2017-01-29T02:45:51.933Z,1011.84
2017-01-29T02:46:32.609Z,1011.83
2017-01-29T02:47:13.233Z,1011.81
2017-01-29T02:47:53.889Z,1011.84
2017-01-29T02:48:34.544Z,1011.8
2017-01-29T02:49:15.191Z,1011.77
2017-01-29T02:49:55.842Z,1011.76
2017-01-29T02:50:36.416Z,1011.77
2017-01-29T02:51:17.048Z,1011.76
2017-01-29T02:51:57.699Z,1011.77
2017-01-29T02:52:38.252Z,1011.78
2017-01-29T02:53:18.903Z,1011.8
2017-01-29T02:53:59.559Z,1011.83
2017-01-29T02:54:40.132Z,1011.82
2017-01-29T02:55:20.760Z,1011.77
2017-01-29T02:56:01.413Z,1011.76
2017-01-29T02:56:41.990Z,1011.77
2017-01-29T02:57:22.671Z,1011.75
2017-01-29T02:58:03.268Z,1011.74
2017-01-29T02:58:43.922Z,1011.77
2017-01-29T02:59:24.486Z,1011.72
2017-01-29T03:00:05.075Z,1011.73
2017-01-29T03:00:45.675Z,1011.75
2017-01-29T03:01:26.330Z,1011.74
2017-01-29T03:02:06.904Z,1011.73
2017-01-29T03:02:47.490Z,1011.75
2017-01-29T03:03:28.113Z,1011.73
2017-01-29T03:04:08.739Z,1011.76
2017-01-29T03:04:49.312Z,1011.73
2017-01-29T03:05:29.899Z,1011.74
2017-01-29T03:06:10.490Z,1011.73
2017-01-29T03:06:51.142Z,1011.72
2017-01-29T03:07:32.816Z,1011.76
2017-01-29T03:08:13.476Z,1011.74
2017-01-29T03:08:54.134Z,1011.79
2017-01-29T03:09:34.776Z,1011.82
2017-01-29T03:10:15.428Z,1011.76
2017-01-29T03:10:56.090Z,1011.84
2017-01-29T03:11:36.744Z,1011.82
2017-01-29T03:12:18.311Z,1011.82
2017-01-29T03:12:58.878Z,1011.83
2017-01-29T03:13:39.493Z,1011.81
2017-01-29T03:14:20.173Z,1011.85
2017-01-29T03:15:00.822Z,1011.87
2017-01-29T03:15:41.389Z,1011.83
2017-01-29T03:16:21.974Z,1011.83
2017-01-29T03:17:02.626Z,1011.86
2017-01-29T03:17:43.310Z,1011.82
2017-01-29T03:18:23.947Z,1011.87
2017-01-29T03:19:05.624Z,1011.82
2017-01-29T03:19:46.254Z,1011.88
2017-01-29T03:20:26.929Z,1011.89
2017-01-29T03:21:07.571Z,1011.85
2017-01-29T03:21:48.227Z,1011.87
2017-01-29T03:22:28.884Z,1011.85
2017-01-29T03:23:09.537Z,1011.88
2017-01-29T03:23:50.173Z,1011.88
2017-01-29T03:24:30.842Z,1011.87
2017-01-29T03:25:11.494Z,1011.89
2017-01-29T03:25:52.128Z,1011.89
2017-01-29T03:26:32.792Z,1011.91
2017-01-29T03:27:13.452Z,1011.95
2017-01-29T03:27:54.098Z,1011.91
2017-01-29T03:28:34.753Z,1011.91
2017-01-29T03:29:15.417Z,1011.95
2017-01-29T03:29:56.048Z,1011.93
2017-01-29T03:30:36.718Z,1011.94
2017-01-29T03:31:17.370Z,1011.96
2017-01-29T03:31:58.020Z,1011.97
2017-01-29T03:32:38.674Z,1011.95
2017-01-29T03:33:19.331Z,1011.99
2017-01-29T03:33:59.992Z,1012
2017-01-29T03:34:40.630Z,1011.98
2017-01-29T03:35:21.280Z,1012
2017-01-29T03:36:01.935Z,1012
2017-01-29T03:36:42.536Z,1012.03
2017-01-29T03:37:23.093Z,1011.99
2017-01-29T03:38:03.739Z,1011.99
2017-01-29T03:38:44.393Z,1012.01
2017-01-29T03:39:24.956Z,1012.03
2017-01-29T03:40:05.591Z,1012.02
2017-01-29T03:40:46.250Z,1012.04
2017-01-29T03:41:26.899Z,1012.03
2017-01-29T03:42:07.555Z,1012.02
2017-01-29T03:42:48.208Z,1012.06
2017-01-29T03:43:29.907Z,1012.04
2017-01-29T03:44:10.533Z,1012.05
2017-01-29T03:44:51.186Z,1012.05
2017-01-29T03:45:31.845Z,1012.09
2017-01-29T03:46:12.499Z,1012.08
2017-01-29T03:46:53.148Z,1012.04
2017-01-29T03:47:33.800Z,1012.08
2017-01-29T03:48:14.457Z,1012.1
2017-01-29T03:48:55.102Z,1012.09
2017-01-29T03:49:35.762Z,1012.09
2017-01-29T03:50:16.421Z,1012.15
2017-01-29T03:50:57.066Z,1012.09
2017-01-29T03:51:37.720Z,1012.12
2017-01-29T03:52:18.369Z,1012.12
2017-01-29T03:52:59.032Z,1012.15
2017-01-29T03:53:39.674Z,1012.16
2017-01-29T03:54:20.327Z,1012.14
2017-01-29T03:55:00.984Z,1012.15
2017-01-29T03:55:41.633Z,1012.15
2017-01-29T03:56:22.286Z,1012.18
2017-01-29T03:57:02.936Z,1012.16
2017-01-29T03:57:43.599Z,1012.24
2017-01-29T03:58:24.252Z,1012.2
2017-01-29T03:59:04.901Z,1012.19
2017-01-29T03:59:45.555Z,1012.17
2017-01-29T04:00:26.209Z,1012.21
2017-01-29T04:01:06.865Z,1012.21
2017-01-29T04:01:47.521Z,1012.2
2017-01-29T04:02:28.169Z,1012.19
2017-01-29T04:03:09.852Z,1012.17
2017-01-29T04:03:50.495Z,1012.21
2017-01-29T04:04:31.147Z,1012.18
2017-01-29T04:05:11.802Z,1012.2
2017-01-29T04:05:52.454Z,1012.18
2017-01-29T04:06:33.102Z,1012.2
2017-01-29T04:07:13.761Z,1012.19
2017-01-29T04:07:54.407Z,1012.13
2017-01-29T04:08:35.067Z,1012.14
2017-01-29T04:09:15.724Z,1012.12
2017-01-29T04:09:57.393Z,1012.14
2017-01-29T04:10:38.001Z,1012.16
2017-01-29T04:11:18.576Z,1012.12
2017-01-29T04:11:59.160Z,1012.11
2017-01-29T04:12:39.753Z,1012.11
2017-01-29T04:13:20.409Z,1012.08
2017-01-29T04:14:00.995Z,1012.06
2017-01-29T04:14:41.677Z,1012.08
2017-01-29T04:15:22.248Z,1012.07
2017-01-29T04:16:02.921Z,1012.07
2017-01-29T04:16:43.500Z,1012.08
2017-01-29T04:17:24.093Z,1012.06
2017-01-29T04:18:04.671Z,1012.06
2017-01-29T04:18:45.327Z,1012.1
2017-01-29T04:19:25.899Z,1012.07
2017-01-29T04:20:06.485Z,1012.07
2017-01-29T04:20:47.080Z,1012.09
2017-01-29T04:21:27.731Z,1012.05
2017-01-29T04:22:09.303Z,1012.08
2017-01-29T04:22:49.956Z,1012.05
2017-01-29T04:23:30.609Z,1012.02
2017-01-29T04:24:11.265Z,1012.03
2017-01-29T04:24:51.927Z,1011.99
2017-01-29T04:25:32.576Z,1012.04
2017-01-29T04:26:13.231Z,1011.96
2017-01-29T04:26:53.779Z,1012
2017-01-29T04:27:34.428Z,1011.98
2017-01-29T04:28:15.081Z,1011.99
2017-01-29T04:28:55.637Z,1012.01
2017-01-29T04:29:36.284Z,1012.03
2017-01-29T04:30:16.936Z,1011.97
2017-01-29T04:30:57.520Z,1012
2017-01-29T04:31:38.147Z,1012
2017-01-29T04:32:18.822Z,1011.98
2017-01-29T04:32:59.445Z,1011.95
2017-01-29T04:33:40.107Z,1011.93
2017-01-29T04:34:20.759Z,1011.96
2017-01-29T04:35:01.404Z,1011.95
2017-01-29T04:35:42.064Z,1011.95
2017-01-29T04:36:22.711Z,1011.94
2017-01-29T04:37:03.277Z,1011.96
2017-01-29T04:37:43.870Z,1011.93
2017-01-29T04:38:24.471Z,1011.95
2017-01-29T04:39:05.124Z,1011.95
2017-01-29T04:39:45.691Z,1011.97
2017-01-29T04:40:26.278Z,1011.92
2017-01-29T04:41:06.870Z,1011.94
2017-01-29T04:41:47.531Z,1011.87
2017-01-29T04:42:28.185Z,1011.89
2017-01-29T04:43:08.834Z,1011.89
2017-01-29T04:43:49.488Z,1011.92
2017-01-29T04:44:30.143Z,1011.89
2017-01-29T04:45:10.784Z,1011.89
2017-01-29T04:45:51.471Z,1011.88
2017-01-29T04:46:32.097Z,1011.91
2017-01-29T04:47:12.748Z,1011.95
2017-01-29T04:47:53.406Z,1011.94
2017-01-29T04:48:34.054Z,1011.95
2017-01-29T04:49:14.707Z,1011.94
2017-01-29T04:49:55.399Z,1011.95
2017-01-29T04:50:36.079Z,1011.96
2017-01-29T04:51:16.677Z,1011.96
2017-01-29T04:51:57.234Z,1011.94
2017-01-29T04:52:37.825Z,1011.97
2017-01-29T04:53:18.418Z,1011.97
2017-01-29T04:53:59.083Z,1011.99
2017-01-29T04:54:39.646Z,1011.98
2017-01-29T04:55:20.237Z,1011.99
2017-01-29T04:56:00.839Z,1011.98
2017-01-29T04:56:41.490Z,1012.01
2017-01-29T04:57:22.135Z,1012.02
2017-01-29T04:58:02.789Z,1012.05
2017-01-29T04:58:43.445Z,1011.95
2017-01-29T04:59:23.998Z,1012.03
2017-01-29T05:00:04.655Z,1012.02
2017-01-29T05:00:45.310Z,1012.02
2017-01-29T05:01:25.959Z,1011.98
2017-01-29T05:02:06.613Z,1011.97
2017-01-29T05:02:47.269Z,1012
2017-01-29T05:03:27.917Z,1011.99
2017-01-29T05:04:08.568Z,1011.98
2017-01-29T05:04:49.226Z,1011.99
2017-01-29T05:05:29.879Z,1012
2017-01-29T05:06:10.444Z,1011.99
2017-01-29T05:06:51.073Z,1012.01
2017-01-29T05:07:31.746Z,1012.06
2017-01-29T05:08:12.333Z,1012.03
2017-01-29T05:08:52.932Z,1012.07
2017-01-29T05:09:33.597Z,1012.01
2017-01-29T05:10:14.156Z,1012.07
2017-01-29T05:10:54.791Z,1012.09
2017-01-29T05:11:35.447Z,1012.11
2017-01-29T05:12:16.020Z,1012.07
2017-01-29T05:12:56.597Z,1012.08
2017-01-29T05:13:37.197Z,1012.06
2017-01-29T05:14:17.844Z,1012.01
2017-01-29T05:14:58.401Z,1012
2017-01-29T05:15:39.006Z,1011.99
2017-01-29T05:16:19.614Z,1011.97
2017-01-29T05:17:00.264Z,1011.97
2017-01-29T05:17:40.834Z,1011.94
2017-01-29T05:18:21.517Z,1011.91
2017-01-29T05:19:02.140Z,1011.96
2017-01-29T05:19:43.795Z,1011.96
2017-01-29T05:20:24.356Z,1011.98
2017-01-29T05:21:04.948Z,1012
2017-01-29T05:21:45.610Z,1012.01
2017-01-29T05:22:26.265Z,1012.04
2017-01-29T05:23:06.907Z,1012.04
2017-01-29T05:23:47.559Z,1012.04
2017-01-29T05:24:28.211Z,1012.12
2017-01-29T05:25:08.880Z,1012.07
2017-01-29T05:25:49.516Z,1012.11
2017-01-29T05:26:30.217Z,1012.11
2017-01-29T05:27:10.877Z,1012.2
2017-01-29T05:27:51.529Z,1012.14
2017-01-29T05:28:32.193Z,1012.14
2017-01-29T05:29:12.827Z,1012.13
2017-01-29T05:29:54.507Z,1012.11
2017-01-29T05:30:35.160Z,1012.13
2017-01-29T05:31:15.818Z,1012.1
2017-01-29T05:31:56.470Z,1012.07
2017-01-29T05:32:37.117Z,1012.09
2017-01-29T05:33:17.773Z,1012.04
2017-01-29T05:33:58.424Z,1012.1
2017-01-29T05:34:39.088Z,1012.05
2017-01-29T05:35:19.752Z,1012.06
2017-01-29T05:36:00.388Z,1012.04
2017-01-29T05:36:41.047Z,1012.02
2017-01-29T05:37:21.713Z,1011.99
2017-01-29T05:38:02.348Z,1012.03
2017-01-29T05:38:43.004Z,1011.99
2017-01-29T05:39:23.653Z,1011.97
2017-01-29T05:40:04.308Z,1011.99
2017-01-29T05:40:44.959Z,1011.96
2017-01-29T05:41:25.609Z,1011.97
2017-01-29T05:42:06.259Z,1011.96
2017-01-29T05:42:46.917Z,1011.97
2017-01-29T05:43:27.569Z,1011.97
2017-01-29T05:44:08.216Z,1012.03
2017-01-29T05:44:48.881Z,1012.07
2017-01-29T05:45:29.526Z,1012.04
2017-01-29T05:46:10.189Z,1012.05
2017-01-29T05:46:50.830Z,1012.07
2017-01-29T05:47:31.488Z,1012.07
2017-01-29T05:48:12.141Z,1012.09
2017-01-29T05:48:52.794Z,1012.07
2017-01-29T05:49:33.444Z,1012.07
2017-01-29T05:50:14.096Z,1012.11
2017-01-29T05:50:55.774Z,1012.12
2017-01-29T05:51:36.437Z,1012.13
2017-01-29T05:52:17.081Z,1012.11
2017-01-29T05:52:57.735Z,1012.15
2017-01-29T05:53:38.383Z,1012.13
2017-01-29T05:54:19.967Z,1012.12
2017-01-29T05:55:00.608Z,1012.12
2017-01-29T05:55:41.263Z,1012.09
2017-01-29T05:56:21.912Z,1012.1
2017-01-29T05:57:02.574Z,1012.11
2017-01-29T05:57:43.224Z,1012.1
2017-01-29T05:58:23.873Z,1012.14
2017-01-29T05:59:04.530Z,1012.16
2017-01-29T05:59:45.186Z,1012.12
2017-01-29T06:00:25.759Z,1012.11
2017-01-29T06:01:06.394Z,1012.12
2017-01-29T06:01:47.038Z,1012.13
2017-01-29T06:02:27.691Z,1012.15
2017-01-29T06:03:08.350Z,1012.19
2017-01-29T06:03:48.997Z,1012.13
2017-01-29T06:04:29.649Z,1012.17
2017-01-29T06:05:10.305Z,1012.16
2017-01-29T06:05:50.957Z,1012.18
2017-01-29T06:06:31.608Z,1012.18
2017-01-29T06:07:12.267Z,1012.2
2017-01-29T06:07:52.925Z,1012.15
2017-01-29T06:08:33.565Z,1012.17
2017-01-29T06:09:14.226Z,1012.15
2017-01-29T06:09:54.877Z,1012.15
2017-01-29T06:10:35.531Z,1012.19
2017-01-29T06:11:16.184Z,1012.17
2017-01-29T06:11:56.835Z,1012.17
2017-01-29T06:12:37.497Z,1012.16
2017-01-29T06:13:18.144Z,1012.18
2017-01-29T06:13:58.799Z,1012.18
2017-01-29T06:14:39.441Z,1012.2
2017-01-29T06:15:20.094Z,1012.2
2017-01-29T06:16:00.745Z,1012.19
2017-01-29T06:16:41.400Z,1012.2
2017-01-29T06:17:22.051Z,1012.18
2017-01-29T06:18:02.706Z,1012.17
2017-01-29T06:18:43.365Z,1012.19
2017-01-29T06:19:24.010Z,1012.19
2017-01-29T06:20:04.663Z,1012.2
2017-01-29T06:20:45.317Z,1012.21
2017-01-29T06:21:25.890Z,1012.22
2017-01-29T06:22:06.525Z,1012.23
2017-01-29T06:22:47.173Z,1012.22
2017-01-29T06:23:27.723Z,1012.2
2017-01-29T06:24:09.397Z,1012.21
2017-01-29T06:24:50.062Z,1012.21
2017-01-29T06:25:30.639Z,1012.2
2017-01-29T06:26:11.268Z,1012.15
2017-01-29T06:26:51.918Z,1012.18
2017-01-29T06:27:32.496Z,1012.17
2017-01-29T06:28:13.166Z,1012.18
2017-01-29T06:28:53.759Z,1012.2
2017-01-29T06:29:34.425Z,1012.21
2017-01-29T06:30:14.993Z,1012.18
2017-01-29T06:30:55.568Z,1012.23
2017-01-29T06:31:36.165Z,1012.2
2017-01-29T06:32:17.752Z,1012.23
2017-01-29T06:32:58.315Z,1012.2
2017-01-29T06:33:38.914Z,1012.2
2017-01-29T06:34:19.494Z,1012.18
2017-01-29T06:35:00.159Z,1012.2
2017-01-29T06:35:40.723Z,1012.23
2017-01-29T06:36:21.328Z,1012.2
2017-01-29T06:37:01.916Z,1012.23
2017-01-29T06:37:42.478Z,1012.24
2017-01-29T06:38:23.116Z,1012.22
2017-01-29T06:39:03.771Z,1012.25
2017-01-29T06:39:44.332Z,1012.23
2017-01-29T06:40:24.981Z,1012.24
2017-01-29T06:41:05.627Z,1012.23
2017-01-29T06:41:46.281Z,1012.23
2017-01-29T06:42:26.931Z,1012.25
2017-01-29T06:43:07.578Z,1012.21
2017-01-29T06:43:48.235Z,1012.22
2017-01-29T06:44:28.882Z,1012.2
2017-01-29T06:45:09.545Z,1012.24
2017-01-29T06:45:50.195Z,1012.21
2017-01-29T06:46:30.771Z,1012.22
2017-01-29T06:47:11.462Z,1012.23
2017-01-29T06:47:52.051Z,1012.23
2017-01-29T06:48:32.703Z,1012.17
2017-01-29T06:49:13.260Z,1012.22
2017-01-29T06:49:53.854Z,1012.21
2017-01-29T06:50:34.444Z,1012.23
2017-01-29T06:51:15.112Z,1012.28
2017-01-29T06:51:55.759Z,1012.3
2017-01-29T06:52:36.410Z,1012.27
2017-01-29T06:53:17.064Z,1012.28
2017-01-29T06:53:58.644Z,1012.28
2017-01-29T06:54:39.298Z,1012.25
2017-01-29T06:55:19.941Z,1012.25
2017-01-29T06:56:00.601Z,1012.25
2017-01-29T06:56:42.272Z,1012.25
2017-01-29T06:57:22.933Z,1012.28
2017-01-29T06:58:03.584Z,1012.21
2017-01-29T06:58:44.238Z,1012.24
2017-01-29T06:59:24.888Z,1012.2
2017-01-29T07:00:05.544Z,1012.22
2017-01-29T07:00:46.196Z,1012.21
2017-01-29T07:01:26.750Z,1012.17
2017-01-29T07:02:07.356Z,1012.19
2017-01-29T07:02:47.929Z,1012.21
2017-01-29T07:03:28.498Z,1012.18
2017-01-29T07:04:09.055Z,1012.18
2017-01-29T07:04:50.674Z,1012.22
2017-01-29T07:05:31.287Z,1012.2
2017-01-29T07:06:11.927Z,1012.18
2017-01-29T07:06:52.575Z,1012.17
2017-01-29T07:07:33.255Z,1012.14
2017-01-29T07:08:13.888Z,1012.14
2017-01-29T07:08:54.538Z,1012.15
2017-01-29T07:09:35.192Z,1012.14
2017-01-29T07:10:15.851Z,1012.14
2017-01-29T07:10:56.497Z,1012.11
2017-01-29T07:11:37.151Z,1012.1
2017-01-29T07:12:17.803Z,1012.12
2017-01-29T07:12:58.461Z,1012.1
2017-01-29T07:13:39.113Z,1012.12
2017-01-29T07:14:19.764Z,1012.07
2017-01-29T07:15:00.413Z,1012.05
2017-01-29T07:15:41.067Z,1012.1
2017-01-29T07:16:21.725Z,1012.1
2017-01-29T07:17:02.371Z,1012.13
2017-01-29T07:17:43.027Z,1012.14
2017-01-29T07:18:23.678Z,1012.15
2017-01-29T07:19:04.335Z,1012.14
2017-01-29T07:19:44.991Z,1012.13
2017-01-29T07:20:25.638Z,1012.15
2017-01-29T07:21:06.293Z,1012.11
2017-01-29T07:21:46.845Z,1012.13
2017-01-29T07:22:27.479Z,1012.11
2017-01-29T07:23:08.149Z,1012.13
2017-01-29T07:23:48.719Z,1012.14
2017-01-29T07:24:29.351Z,1012.19
2017-01-29T07:25:10.004Z,1012.2
2017-01-29T07:25:50.561Z,1012.19
2017-01-29T07:26:31.203Z,1012.17
2017-01-29T07:27:11.859Z,1012.24
2017-01-29T07:27:52.412Z,1012.18
2017-01-29T07:28:33.148Z,1012.17
2017-01-29T07:29:13.813Z,1012.17
2017-01-29T07:29:54.470Z,1012.23
2017-01-29T07:30:35.046Z,1012.24
2017-01-29T07:31:15.623Z,1012.21
2017-01-29T07:31:56.232Z,1012.2
2017-01-29T07:32:36.899Z,1012.21
2017-01-29T07:33:17.542Z,1012.2
2017-01-29T07:33:58.186Z,1012.18
2017-01-29T07:34:38.845Z,1012.16
2017-01-29T07:35:19.494Z,1012.15
2017-01-29T07:36:00.144Z,1012.14
2017-01-29T07:36:40.797Z,1012.12
2017-01-29T07:37:21.367Z,1012.13
2017-01-29T07:38:01.949Z,1012.21
2017-01-29T07:38:42.557Z,1012.2
2017-01-29T07:39:23.205Z,1012.18
2017-01-29T07:40:03.764Z,1012.2
2017-01-29T07:40:44.358Z,1012.21
2017-01-29T07:41:24.955Z,1012.25
2017-01-29T07:42:05.603Z,1012.3
2017-01-29T07:42:46.269Z,1012.3
2017-01-29T07:43:26.911Z,1012.23
2017-01-29T07:44:07.571Z,1012.28
2017-01-29T07:44:48.236Z,1012.27
2017-01-29T07:45:28.868Z,1012.26
2017-01-29T07:46:09.527Z,1012.25
2017-01-29T07:46:50.186Z,1012.26
2017-01-29T07:47:30.832Z,1012.24
2017-01-29T07:48:11.486Z,1012.23
2017-01-29T07:48:52.150Z,1012.22
2017-01-29T07:49:32.791Z,1012.17
2017-01-29T07:50:13.439Z,1012.15
2017-01-29T07:50:54.096Z,1012.14
2017-01-29T07:51:34.748Z,1012.15
2017-01-29T07:52:15.404Z,1012.14
2017-01-29T07:52:56.053Z,1012.13
2017-01-29T07:53:36.708Z,1012.15
2017-01-29T07:54:17.362Z,1012.16
2017-01-29T07:54:58.011Z,1012.15
2017-01-29T07:55:38.670Z,1012.11
2017-01-29T07:56:19.343Z,1012.19
2017-01-29T07:56:59.975Z,1012.15
2017-01-29T07:57:40.623Z,1012.19
2017-01-29T07:58:21.281Z,1012.18
2017-01-29T07:59:01.932Z,1012.16
2017-01-29T07:59:42.586Z,1012.21
2017-01-29T08:00:23.234Z,1012.15
2017-01-29T08:01:03.889Z,1012.18
2017-01-29T08:01:44.545Z,1012.21
2017-01-29T08:02:25.197Z,1012.17
2017-01-29T08:03:05.850Z,1012.17
2017-01-29T08:03:46.501Z,1012.19
2017-01-29T08:04:27.156Z,1012.14
2017-01-29T08:05:07.813Z,1012.16
2017-01-29T08:05:48.467Z,1012.14
2017-01-29T08:06:29.034Z,1012.14
2017-01-29T08:07:09.616Z,1012.12
2017-01-29T08:07:50.208Z,1012.15
2017-01-29T08:08:30.874Z,1012.14
2017-01-29T08:09:11.433Z,1012.16
2017-01-29T08:09:52.032Z,1012.13
2017-01-29T08:10:32.642Z,1012.14
2017-01-29T08:11:13.277Z,1012.16
2017-01-29T08:11:53.935Z,1012.19
2017-01-29T08:12:34.592Z,1012.15
2017-01-29T08:13:16.258Z,1012.1
2017-01-29T08:13:56.907Z,1012.1
2017-01-29T08:14:37.571Z,1012.11
2017-01-29T08:15:18.215Z,1012.14